Time;durP1;ratioP1;P1;durP2;ratioP2;P2;SDS_P1;SDS_P2;PMS_P1;PMS_P2;Temp;Humidity;BMP_temperature;BMP_pressure;BME280_temperature;BME280_humidity;BME280_pressure;Samples;Min_cycle;Max_cycle;Signal;HPM_P1;HPM_P2
2021/06/08 00:01:19;;;;;;;8.58;4.17;;;;;;;18.17;88.52;101130.61;1732717;82;21022;-73
2021/06/08 00:03:46;;;;;;;6.90;4.15;;;;;;;18.18;87.75;101132.28;1732932;82;21429;-76
2021/06/08 00:06:13;;;;;;;5.55;4.37;;;;;;;18.15;87.37;101141.75;1732667;82;21081;-76
2021/06/08 00:08:40;;;;;;;8.05;4.50;;;;;;;18.09;87.33;101137.05;1732900;82;21034;-72
2021/06/08 00:11:07;;;;;;;6.05;3.80;;;;;;;18.03;87.39;101136.27;1732815;82;21166;-72
2021/06/08 00:13:34;;;;;;;9.88;4.10;;;;;;;17.98;87.35;101139.80;1732552;82;20899;-71
2021/06/08 00:16:02;;;;;;;7.10;4.05;;;;;;;17.88;87.35;101137.16;1732755;82;21081;-71
2021/06/08 00:18:29;;;;;;;9.28;4.03;;;;;;;17.77;87.43;101139.89;1732754;82;21651;-73
2021/06/08 00:20:56;;;;;;;6.87;4.03;;;;;;;17.73;87.34;101138.53;1732749;82;20955;-73
2021/06/08 00:23:23;;;;;;;8.53;4.40;;;;;;;17.67;87.08;101141.70;1732807;82;21106;-74
2021/06/08 00:25:50;;;;;;;5.58;3.65;;;;;;;17.61;86.50;101135.68;1732908;82;21010;-73
2021/06/08 00:28:17;;;;;;;5.72;3.52;;;;;;;17.53;85.90;101135.47;1732559;82;21046;-72
2021/06/08 00:30:44;;;;;;;6.83;3.30;;;;;;;17.43;85.64;101130.20;1732891;82;20982;-76
2021/06/08 00:33:11;;;;;;;10.93;3.72;;;;;;;17.35;85.68;101127.42;1732895;82;21093;-73
2021/06/08 00:35:38;;;;;;;7.80;4.00;;;;;;;17.32;85.85;101124.23;1732894;82;21166;-74
2021/06/08 00:38:05;;;;;;;10.23;3.58;;;;;;;17.32;85.76;101120.30;1733441;82;21628;-72
2021/06/08 00:40:33;;;;;;;5.60;3.45;;;;;;;17.32;85.41;101122.92;1700012;84;21614;-75
2021/06/08 00:43:00;;;;;;;7.20;3.58;;;;;;;17.29;85.34;101120.06;1698888;84;21606;-73
2021/06/08 00:45:27;;;;;;;9.83;3.52;;;;;;;17.27;85.16;101116.75;1699811;84;20997;-75
2021/06/08 00:47:54;;;;;;;8.80;3.72;;;;;;;17.26;84.67;101120.33;1699925;84;21810;-75
2021/06/08 00:50:21;;;;;;;11.50;3.80;;;;;;;17.24;84.16;101118.80;1698620;84;21029;-73
2021/06/08 00:52:51;;;;;;;8.30;3.50;;;;;;;17.21;84.04;101118.59;1699757;84;20961;-74
2021/06/08 00:55:17;;;;;;;8.38;3.22;;;;;;;17.20;83.98;101119.55;1699998;84;20964;-75
2021/06/08 00:57:44;;;;;;;6.83;3.37;;;;;;;17.19;84.30;101118.39;1699066;84;20913;-72
2021/06/08 01:00:12;;;;;;;7.47;3.33;;;;;;;17.18;84.50;101122.80;1699909;84;21173;-76
2021/06/08 01:02:39;;;;;;;7.97;3.17;;;;;;;17.18;84.34;101112.78;1699827;84;21496;-77
2021/06/08 01:05:07;;;;;;;8.50;4.45;;;;;;;17.16;84.34;101109.00;1698988;84;21059;-73
2021/06/08 01:07:35;;;;;;;7.83;4.67;;;;;;;17.16;84.57;101110.78;1699865;84;21004;-77
2021/06/08 01:10:08;;;;;;;6.55;3.85;;;;;;;17.17;84.41;101109.80;1700019;84;21264;-75
2021/06/08 01:12:35;;;;;;;11.75;3.65;;;;;;;17.18;84.39;101108.84;1699121;84;21794;-76
2021/06/08 01:15:02;;;;;;;7.85;3.80;;;;;;;17.20;84.16;101111.68;1699934;84;21507;-76
2021/06/08 01:17:29;;;;;;;7.58;4.15;;;;;;;17.22;84.31;101106.31;1700062;84;21561;-71
2021/06/08 01:19:57;;;;;;;6.20;3.67;;;;;;;17.24;84.20;101103.91;1699163;84;21480;-71
2021/06/08 01:22:24;;;;;;;14.75;4.10;;;;;;;17.28;83.49;101103.16;1700044;84;21043;-72
2021/06/08 01:24:52;;;;;;;9.10;4.53;;;;;;;17.29;83.09;101105.63;1700078;84;21161;-71
2021/06/08 01:27:20;;;;;;;6.65;3.70;;;;;;;17.29;82.87;101097.77;1698880;84;20945;-75
2021/06/08 01:29:48;;;;;;;5.87;3.22;;;;;;;17.29;82.56;101101.70;1700337;84;21059;-76
2021/06/08 01:32:16;;;;;;;5.92;3.27;;;;;;;17.30;82.41;101105.99;1699669;84;20870;-76
2021/06/08 01:34:44;;;;;;;9.33;3.77;;;;;;;17.31;82.74;101106.34;1699139;84;20997;-78
2021/06/08 01:37:16;;;;;;;9.20;3.50;;;;;;;17.32;82.69;101106.70;1699847;84;21972;-77
2021/06/08 01:39:46;;;;;;;7.62;4.03;;;;;;;17.32;82.13;101108.49;1700612;84;21028;-81
2021/06/08 01:42:13;;;;;;;12.53;3.70;;;;;;;17.30;81.79;101109.09;1732590;82;21569;-80
2021/06/08 01:44:44;;;;;;;8.20;3.77;;;;;;;17.23;82.14;101119.28;1732794;82;20958;-76
2021/06/08 01:47:11;;;;;;;6.03;3.25;;;;;;;17.12;83.09;101118.56;1732998;82;21656;-83
2021/06/08 01:49:38;;;;;;;5.50;3.30;;;;;;;16.96;84.63;101120.36;1702215;82;21913;-75
2021/06/08 01:52:30;;;;;;;6.40;4.03;;;;;;;16.82;85.60;101126.77;1732653;82;20990;-77
2021/06/08 01:55:20;;;;;;;10.50;3.47;;;;;;;16.77;86.58;101126.81;1727395;83;21542;-84
2021/06/08 01:57:52;;;;;;;9.13;4.00;;;;;;;16.74;87.21;101123.14;1699129;84;21459;-78
2021/06/08 02:01:00;;;;;;;9.75;3.40;;;;;;;16.72;88.34;101123.25;1732781;82;20903;-80
2021/06/08 02:03:36;;;;;;;7.95;4.00;;;;;;;16.72;89.02;101132.42;1731724;82;21106;-79
2021/06/08 02:06:20;;;;;;;5.67;3.75;;;;;;;16.75;90.50;101123.50;1732626;82;20907;-76
2021/06/08 02:09:04;;;;;;;7.58;3.40;;;;;;;16.78;92.16;101126.66;1731638;82;20986;-78
2021/06/08 02:11:55;;;;;;;7.25;4.30;;;;;;;16.83;93.37;101124.50;1732985;82;21027;-76
2021/06/08 02:14:35;;;;;;;5.90;3.62;;;;;;;16.90;95.30;101128.27;1703170;82;21050;-84
2021/06/08 02:17:23;;;;;;;5.62;3.72;;;;;;;16.97;96.13;101128.58;1732739;82;21096;-77
2021/06/08 02:19:52;;;;;;;8.43;4.58;;;;;;;17.02;96.94;101122.92;1701527;82;21054;-77
2021/06/08 02:22:24;;;;;;;7.67;4.28;;;;;;;17.06;99.00;101129.10;1732429;82;21518;-73
2021/06/08 02:24:51;;;;;;;10.63;4.28;;;;;;;17.07;99.17;101126.80;1733004;82;21497;-70
2021/06/08 02:27:22;;;;;;;8.03;4.12;;;;;;;17.08;98.88;101135.51;1733007;82;20891;-75
2021/06/08 02:29:49;;;;;;;6.85;3.75;;;;;;;17.05;98.60;101135.30;1733099;82;21758;-75
2021/06/08 02:32:16;;;;;;;9.83;4.03;;;;;;;17.05;97.59;101137.08;1732684;82;20923;-70
2021/06/08 02:34:43;;;;;;;7.72;4.15;;;;;;;17.03;97.02;101144.27;1732737;82;21027;-77
2021/06/08 02:37:12;;;;;;;9.43;5.03;;;;;;;17.03;96.55;101140.33;1732900;82;20951;-80
2021/06/08 02:39:42;;;;;;;7.65;5.12;;;;;;;17.01;96.74;101139.64;1734772;82;21584;-72
2021/06/08 02:42:12;;;;;;;9.53;5.67;;;;;;;17.00;96.88;101140.12;1735333;82;21525;-72
2021/06/08 02:44:40;;;;;;;9.83;5.20;;;;;;;17.02;97.00;101146.52;1735200;82;20963;-72
2021/06/08 02:47:07;;;;;;;12.35;4.90;;;;;;;17.02;97.12;101151.77;1735319;82;21062;-70
2021/06/08 02:49:34;;;;;;;12.65;6.05;;;;;;;16.98;97.70;101156.44;1699887;84;21811;-75
2021/06/08 02:52:01;;;;;;;11.55;5.70;;;;;;;16.93;98.82;101148.98;1698853;84;21542;-72
2021/06/08 02:54:28;;;;;;;10.85;6.05;;;;;;;16.89;99.83;101152.81;1700092;84;22008;-72
2021/06/08 02:56:56;;;;;;;12.07;6.47;;;;;;;16.87;100.00;101148.67;1700270;84;20969;-73
2021/06/08 02:59:26;;;;;;;10.28;6.10;;;;;;;16.85;100.00;101156.64;1663478;85;20929;-79
2021/06/08 03:01:56;;;;;;;8.90;5.87;;;;;;;16.83;100.00;101156.44;1700149;84;20965;-74
2021/06/08 03:04:26;;;;;;;7.62;5.40;;;;;;;16.77;100.00;101151.70;1700240;84;20905;-76
2021/06/08 03:06:56;;;;;;;11.05;4.90;;;;;;;16.74;100.00;101155.90;1700342;84;21106;-79
2021/06/08 03:09:37;;;;;;;10.15;4.70;;;;;;;16.73;99.75;101152.92;1671537;85;20948;-73
2021/06/08 03:12:09;;;;;;;6.80;4.70;;;;;;;16.72;98.91;101153.39;1692866;84;20966;-74
2021/06/08 03:14:36;;;;;;;7.90;4.55;;;;;;;16.70;98.03;101151.39;1669308;84;21076;-75
2021/06/08 03:17:03;;;;;;;12.45;4.92;;;;;;;16.69;97.28;101154.96;1694707;84;21051;-78
2021/06/08 03:19:33;;;;;;;7.87;4.05;;;;;;;16.69;96.68;101154.96;1694745;84;21814;-75
2021/06/08 03:22:05;;;;;;;6.67;3.55;;;;;;;16.72;96.15;101154.70;1694559;84;21440;-73
2021/06/08 03:24:34;;;;;;;9.30;3.65;;;;;;;16.75;95.21;101158.38;1694708;84;21515;-78
2021/06/08 03:27:01;;;;;;;6.80;4.15;;;;;;;16.78;94.34;101160.73;1694631;84;21102;-76
2021/06/08 03:29:29;;;;;;;8.30;4.15;;;;;;;16.84;94.05;101169.42;1694484;84;21037;-75
2021/06/08 03:31:55;;;;;;;13.15;3.83;;;;;;;16.90;93.35;101170.69;1694545;84;21213;-77
2021/06/08 03:34:22;;;;;;;8.35;3.15;;;;;;;16.94;92.94;101170.79;1694589;83;21021;-74
2021/06/08 03:36:52;;;;;;;6.70;3.33;;;;;;;17.00;92.76;101172.05;1694578;84;20958;-73
2021/06/08 03:39:20;;;;;;;11.15;3.80;;;;;;;17.05;92.26;101175.94;1673692;84;20921;-76
2021/06/08 03:41:48;;;;;;;7.80;3.17;;;;;;;17.12;91.70;101187.58;1731213;82;21082;-79
2021/06/08 03:44:17;;;;;;;10.18;3.55;;;;;;;17.17;91.30;101183.23;1731348;82;21770;-74
2021/06/08 03:46:45;;;;;;;9.00;3.30;;;;;;;17.20;90.77;101186.43;1731281;82;21485;-74
2021/06/08 03:49:17;;;;;;;6.37;3.80;;;;;;;17.24;90.51;101192.25;1731242;82;20954;-72
2021/06/08 03:51:45;;;;;;;6.60;3.47;;;;;;;17.26;89.87;101197.70;1731548;82;20970;-72
2021/06/08 03:54:12;;;;;;;6.72;3.17;;;;;;;17.26;89.37;101193.77;1731187;82;20978;-79
2021/06/08 03:56:44;;;;;;;6.72;3.65;;;;;;;17.28;89.54;101195.80;1731180;82;21175;-73
2021/06/08 03:59:12;;;;;;;8.60;3.58;;;;;;;17.31;89.06;101197.33;1731371;82;21042;-74
2021/06/08 04:01:40;;;;;;;5.60;3.10;;;;;;;17.34;88.65;101201.00;1731314;82;20979;-73
2021/06/08 04:04:06;;;;;;;8.93;3.30;;;;;;;17.36;88.36;101197.27;1731271;82;21081;-72
2021/06/08 04:06:34;;;;;;;5.83;3.33;;;;;;;17.38;88.20;101195.37;1731257;82;21572;-70
2021/06/08 04:09:07;;;;;;;8.18;3.47;;;;;;;17.42;87.72;101201.99;1731359;82;21782;-71
2021/06/08 04:11:38;;;;;;;9.88;3.35;;;;;;;17.44;87.86;101198.78;1731054;82;21003;-74
2021/06/08 04:14:05;;;;;;;10.18;3.37;;;;;;;17.49;88.20;101200.98;1731210;82;21049;-74
2021/06/08 04:16:35;;;;;;;7.25;3.40;;;;;;;17.55;87.56;101204.42;1731799;82;20993;-71
2021/06/08 04:19:03;;;;;;;7.67;3.85;;;;;;;17.61;87.86;101207.86;1731217;82;20998;-76
2021/06/08 04:21:30;;;;;;;6.12;3.22;;;;;;;17.67;87.98;101206.00;1682050;84;21167;-72
2021/06/08 04:23:59;;;;;;;4.90;3.22;;;;;;;17.73;87.73;101213.82;1678577;85;20915;-75
2021/06/08 04:26:26;;;;;;;9.05;3.65;;;;;;;17.78;87.52;101208.98;1678575;85;21086;-73
2021/06/08 04:28:54;;;;;;;8.63;3.05;;;;;;;17.86;87.22;101210.48;1678512;85;20931;-71
2021/06/08 04:31:21;;;;;;;7.33;3.05;;;;;;;17.91;86.83;101215.66;1678689;85;21010;-71
2021/06/08 04:33:48;;;;;;;5.03;2.87;;;;;;;17.96;85.12;101213.95;1678730;85;21881;-75
2021/06/08 04:36:15;;;;;;;6.05;2.72;;;;;;;18.01;84.08;101215.68;1678671;85;21068;-72
2021/06/08 04:38:44;;;;;;;6.28;3.35;;;;;;;18.07;84.20;101216.45;1677160;84;21022;-71
2021/06/08 04:41:12;;;;;;;4.90;3.25;;;;;;;18.09;84.47;101216.33;1664244;86;21019;-78
2021/06/08 04:43:40;;;;;;;6.78;3.05;;;;;;;18.16;84.67;101217.42;1664101;86;22059;-75
2021/06/08 04:46:11;;;;;;;6.72;2.98;;;;;;;18.23;84.29;101213.29;1639147;86;21170;-72
2021/06/08 04:48:37;;;;;;;6.15;2.98;;;;;;;18.31;83.62;101224.80;1663936;86;20977;-73
2021/06/08 04:51:05;;;;;;;5.42;3.08;;;;;;;18.41;82.87;101222.17;1664071;84;20956;-74
2021/06/08 04:53:32;;;;;;;7.85;3.37;;;;;;;18.48;81.96;101220.15;1663967;86;20976;-73
2021/06/08 04:55:59;;;;;;;9.45;3.17;;;;;;;18.54;82.15;101212.73;1664081;86;21432;-72
2021/06/08 04:58:26;;;;;;;8.83;2.92;;;;;;;18.59;82.11;101218.39;1664147;86;21807;-74
2021/06/08 05:01:17;;;;;;;9.35;2.95;;;;;;;18.64;81.44;101220.09;1664145;86;21035;-72
2021/06/08 05:03:47;;;;;;;17.55;4.40;;;;;;;18.72;80.33;101222.39;1664120;86;21055;-74
2021/06/08 05:06:22;;;;;;;8.13;3.10;;;;;;;18.78;79.97;101223.15;1661320;86;20984;-74
2021/06/08 05:08:54;;;;;;;3.62;2.83;;;;;;;18.84;78.88;101227.01;1664192;86;20981;-72
2021/06/08 05:11:53;;;;;;;5.55;2.90;;;;;;;18.87;78.46;101231.50;1664027;86;21153;-72
2021/06/08 05:14:21;;;;;;;9.73;3.20;;;;;;;18.89;78.14;101224.80;1664096;86;21436;-73
2021/06/08 05:16:49;;;;;;;9.13;3.12;;;;;;;18.92;77.31;101228.47;1663999;84;20961;-73
2021/06/08 05:19:18;;;;;;;10.32;2.70;;;;;;;18.97;77.22;101234.13;1664116;86;21062;-74
2021/06/08 05:21:45;;;;;;;5.55;2.90;;;;;;;19.02;77.37;101230.56;1664072;86;21549;-74
2021/06/08 05:24:13;;;;;;;4.90;2.65;;;;;;;19.07;77.32;101228.84;1664075;86;21880;-76
2021/06/08 05:26:46;;;;;;;4.45;2.90;;;;;;;19.11;77.33;101231.06;1664133;86;21268;-74
2021/06/08 05:29:20;;;;;;;6.08;3.05;;;;;;;19.16;77.52;101227.50;1663937;86;20983;-74
2021/06/08 05:31:47;;;;;;;5.58;2.40;;;;;;;19.25;75.76;101224.01;1710435;83;20952;-72
2021/06/08 05:34:14;;;;;;;7.33;2.47;;;;;;;19.35;73.02;101223.49;1710615;83;20936;-72
2021/06/08 05:36:42;;;;;;;6.80;3.05;;;;;;;19.46;72.46;101229.11;1710402;83;21154;-75
2021/06/08 05:39:09;;;;;;;7.60;2.55;;;;;;;19.54;71.75;101223.45;1711651;81;21831;-73
2021/06/08 05:41:36;;;;;;;5.97;3.00;;;;;;;19.65;71.29;101222.92;1721327;83;21015;-72
2021/06/08 05:44:04;;;;;;;4.08;2.98;;;;;;;19.73;72.00;101222.52;1721219;83;20983;-75
2021/06/08 05:46:37;;;;;;;7.87;2.42;;;;;;;19.82;71.65;101222.95;1721165;83;21022;-75
2021/06/08 05:49:05;;;;;;;;;;;;;;;19.92;71.75;101226.86;1703567;84;21155;-73
2021/06/08 05:51:35;;;;;;;5.95;2.83;;;;;;;20.03;71.47;101230.62;1701089;84;20120;-84
2021/06/08 05:54:04;;;;;;;6.72;2.98;;;;;;;20.13;71.11;101227.44;1701184;84;20945;-73
2021/06/08 05:56:33;;;;;;;7.95;3.25;;;;;;;20.23;70.69;101224.73;1701316;84;20928;-74
2021/06/08 05:59:00;;;;;;;7.45;3.00;;;;;;;20.33;71.00;101218.91;1701245;84;20869;-73
2021/06/08 06:01:27;;;;;;;7.55;2.95;;;;;;;20.39;71.31;101217.81;1701169;84;21110;-73
2021/06/08 06:03:55;;;;;;;3.67;2.75;;;;;;;20.46;71.39;101217.56;1700955;84;20869;-76
2021/06/08 06:06:22;;;;;;;9.18;3.08;;;;;;;20.52;71.38;101221.39;1701320;84;20987;-75
2021/06/08 06:08:51;;;;;;;4.85;3.27;;;;;;;20.56;71.44;101220.95;1700950;84;20948;-74
2021/06/08 06:11:19;;;;;;;4.62;2.77;;;;;;;20.63;70.32;101222.48;1701228;84;21431;-77
2021/06/08 06:13:49;;;;;;;3.30;2.42;;;;;;;20.76;65.30;101218.97;1700935;84;21344;-76
2021/06/08 06:16:17;;;;;;;3.95;2.33;;;;;;;20.90;65.64;101217.59;1710162;83;21033;-82
2021/06/08 06:18:44;;;;;;;4.35;2.60;;;;;;;21.02;64.54;101217.67;1701373;84;20972;-75
2021/06/08 06:21:14;;;;;;;6.00;2.87;;;;;;;21.10;63.02;101213.78;1692432;84;21038;-77
2021/06/08 06:23:41;;;;;;;7.75;3.05;;;;;;;21.18;64.12;101222.25;1729333;83;20938;-78
2021/06/08 06:26:08;;;;;;;8.63;2.90;;;;;;;21.22;61.83;101219.13;1701032;84;21210;-76
2021/06/08 06:28:35;;;;;;;6.40;2.75;;;;;;;21.27;61.62;101214.71;1700994;84;20940;-75
2021/06/08 06:31:02;;;;;;;6.08;3.08;;;;;;;21.32;62.10;101215.05;1701456;84;21525;-74
2021/06/08 06:33:29;;;;;;;4.47;2.98;;;;;;;21.31;61.74;101215.58;1709564;83;20949;-74
2021/06/08 06:36:00;;;;;;;3.15;2.62;;;;;;;21.32;61.72;101217.70;1672810;85;20867;-78
2021/06/08 06:38:27;;;;;;;5.60;2.52;;;;;;;21.32;62.43;101215.89;1684901;85;21815;-79
2021/06/08 06:40:54;;;;;;;5.40;2.67;;;;;;;21.34;63.59;101217.90;1692947;84;21009;-76
2021/06/08 06:43:25;;;;;;;5.85;2.77;;;;;;;21.37;62.61;101220.71;1696159;84;21142;-77
2021/06/08 06:45:53;;;;;;;4.80;3.02;;;;;;;21.41;62.22;101224.70;1696066;84;21095;-73
2021/06/08 06:48:21;;;;;;;7.47;3.47;;;;;;;21.37;62.27;101217.58;1696056;84;20980;-78
2021/06/08 06:50:48;;;;;;;9.80;3.00;;;;;;;21.42;63.45;101218.41;1695901;84;21145;-72
2021/06/08 06:53:18;;;;;;;7.40;2.62;;;;;;;21.45;62.74;101215.45;1695909;84;20983;-72
2021/06/08 06:55:50;;;;;;;6.22;2.42;;;;;;;21.48;63.33;101209.86;1695877;84;21048;-81
2021/06/08 06:58:21;;;;;;;6.55;2.20;;;;;;;21.53;63.18;101213.70;1696339;84;21095;-77
2021/06/08 07:00:48;;;;;;;4.20;2.30;;;;;;;21.58;62.36;101209.25;1695922;84;20996;-77
2021/06/08 07:03:21;;;;;;;3.33;2.33;;;;;;;21.58;62.09;101210.08;1695957;84;21147;-72
2021/06/08 07:05:48;;;;;;;6.50;2.50;;;;;;;21.58;61.43;101207.44;1695804;84;21064;-72
2021/06/08 07:08:15;;;;;;;4.25;2.75;;;;;;;21.59;61.96;101206.95;1711489;83;21118;-76
2021/06/08 07:10:43;;;;;;;2.70;2.40;;;;;;;21.61;61.86;101208.44;1733043;82;20998;-74
2021/06/08 07:13:10;;;;;;;4.83;2.40;;;;;;;21.63;61.37;101203.81;1676000;82;21025;-76
2021/06/08 07:15:38;;;;;;;3.87;1.95;;;;;;;21.67;61.47;101204.81;1702480;82;21146;-80
2021/06/08 07:18:06;;;;;;;2.20;2.00;;;;;;;21.70;60.85;101197.40;1732850;82;21099;-72
2021/06/08 07:20:33;;;;;;;4.03;2.37;;;;;;;21.74;59.88;101205.34;1733015;82;21016;-73
2021/06/08 07:23:01;;;;;;;3.55;2.58;;;;;;;21.74;60.13;101203.19;1732975;82;20967;-76
2021/06/08 07:25:28;;;;;;;4.75;2.67;;;;;;;21.77;60.99;101202.38;1732988;82;20935;-74
2021/06/08 07:27:55;;;;;;;5.67;2.17;;;;;;;21.80;61.52;101203.37;1702029;82;21145;-74
2021/06/08 07:30:23;;;;;;;6.30;3.02;;;;;;;21.86;61.52;101204.55;1732608;82;21046;-78
2021/06/08 07:33:12;;;;;;;4.50;2.60;;;;;;;21.93;62.00;101198.98;1733157;82;21010;-76
2021/06/08 07:36:02;;;;;;;4.67;2.30;;;;;;;21.98;61.85;101199.34;1732920;82;21615;-76
2021/06/08 07:38:43;;;;;;;2.90;2.33;;;;;;;22.08;62.01;101203.48;1733012;82;20994;-78
2021/06/08 07:41:17;;;;;;;9.10;2.67;;;;;;;22.19;61.00;101200.20;1751741;79;21160;-76
2021/06/08 07:43:54;;;;;;;4.28;2.15;;;;;;;22.25;60.88;101193.77;1754796;80;21101;-75
2021/06/08 07:46:21;;;;;;;3.87;2.47;;;;;;;22.32;61.23;101197.41;1730186;83;21103;-74
2021/06/08 07:48:52;;;;;;;6.65;2.45;;;;;;;22.40;60.76;101194.76;1730295;83;20973;-75
2021/06/08 07:51:19;;;;;;;5.08;2.47;;;;;;;22.43;60.33;101193.10;1730385;83;21055;-77
2021/06/08 07:53:46;;;;;;;3.98;2.02;;;;;;;22.49;60.16;101192.96;1728552;82;21146;-76
2021/06/08 07:56:16;;;;;;;2.83;2.15;;;;;;;22.56;59.26;101191.28;1777621;80;20978;-76
2021/06/08 07:58:44;;;;;;;2.70;2.20;;;;;;;22.63;59.14;101188.31;1679817;82;20998;-74
2021/06/08 08:01:14;;;;;;;4.20;2.10;;;;;;;22.69;58.63;101186.35;1701257;84;21233;-77
2021/06/08 08:03:41;;;;;;;4.30;2.02;;;;;;;22.75;58.32;101188.85;1660773;85;21511;-76
2021/06/08 08:06:11;;;;;;;4.28;2.30;;;;;;;22.82;57.99;101180.06;1683151;85;21831;-78
2021/06/08 08:08:39;;;;;;;3.67;1.92;;;;;;;22.92;56.38;101187.32;1683378;85;21429;-76
2021/06/08 08:11:10;;;;;;;4.12;1.92;;;;;;;23.03;54.96;101184.34;1683609;85;21051;-78
2021/06/08 08:13:40;;;;;;;4.42;2.02;;;;;;;23.12;54.45;101183.31;1690044;83;20998;-77
2021/06/08 08:16:08;;;;;;;4.78;2.33;;;;;;;23.20;54.66;101184.60;1702807;83;21027;-82
2021/06/08 08:18:36;;;;;;;2.85;2.00;;;;;;;23.30;54.93;101180.44;1668994;85;22111;-72
2021/06/08 08:21:07;;;;;;;3.02;1.80;;;;;;;23.41;53.28;101193.34;1678318;84;21688;-79
2021/06/08 08:23:35;;;;;;;3.83;2.20;;;;;;;23.49;53.20;101189.83;1672369;85;21071;-73
2021/06/08 08:26:05;;;;;;;3.75;2.17;;;;;;;23.54;52.07;101197.61;1671609;84;21620;-73
2021/06/08 08:28:36;;;;;;;4.28;2.12;;;;;;;23.56;53.38;101188.98;1671668;85;21084;-76
2021/06/08 08:31:16;;;;;;;4.37;2.33;;;;;;;23.62;52.99;101185.63;1671989;84;21033;-73
2021/06/08 08:33:45;;;;;;;7.55;2.37;;;;;;;23.68;53.43;101182.28;1671361;84;21005;-74
2021/06/08 08:36:12;;;;;;;4.97;2.27;;;;;;;23.78;53.44;101185.22;1671478;84;21166;-77
2021/06/08 08:38:39;;;;;;;4.12;1.75;;;;;;;23.86;52.84;101181.21;1671434;85;21728;-83
2021/06/08 08:41:06;;;;;;;5.62;2.30;;;;;;;23.98;53.37;101184.61;1677061;85;21606;-74
2021/06/08 08:43:34;;;;;;;6.28;2.20;;;;;;;24.06;53.62;101185.08;1682122;84;21099;-76
2021/06/08 08:46:01;;;;;;;4.97;2.37;;;;;;;24.05;52.53;101186.06;1682418;84;21528;-76
2021/06/08 08:48:28;;;;;;;5.05;2.37;;;;;;;24.03;52.19;101187.55;1670854;84;21034;-73
2021/06/08 08:50:57;;;;;;;6.08;2.30;;;;;;;24.07;52.75;101187.53;1733176;82;21034;-74
2021/06/08 08:53:25;;;;;;;4.47;2.50;;;;;;;24.13;53.12;101180.72;1732871;82;21476;-80
2021/06/08 08:55:55;;;;;;;3.22;2.00;;;;;;;24.18;51.09;101175.23;1732845;82;20967;-80
2021/06/08 08:58:22;;;;;;;9.15;3.33;;;;;;;24.21;49.79;101181.51;1733164;82;20993;-76
2021/06/08 09:00:50;;;;;;;3.90;2.30;;;;;;;24.26;51.20;101178.80;1700755;82;21462;-74
2021/06/08 09:03:18;;;;;;;2.33;2.08;;;;;;;24.38;51.22;101180.86;1732641;82;21042;-76
2021/06/08 09:05:46;;;;;;;4.62;2.00;;;;;;;24.52;50.31;101180.59;1733611;82;21089;-75
2021/06/08 09:08:14;;;;;;;7.53;2.47;;;;;;;24.64;49.64;101175.17;1733450;82;21157;-77
2021/06/08 09:10:42;;;;;;;4.10;1.95;;;;;;;24.76;48.86;101175.08;1732542;82;21118;-76
2021/06/08 09:13:10;;;;;;;3.52;2.00;;;;;;;24.86;48.29;101170.87;1732210;82;21065;-79
2021/06/08 09:15:38;;;;;;;5.53;2.20;;;;;;;24.97;48.75;101171.23;1733430;82;20986;-75
2021/06/08 09:18:05;;;;;;;8.28;2.65;;;;;;;24.98;50.13;101174.22;1733292;82;21058;-75
2021/06/08 09:20:33;;;;;;;4.90;2.20;;;;;;;24.96;50.72;101170.90;1732864;82;21101;-77
2021/06/08 09:23:03;;;;;;;5.55;3.08;;;;;;;24.98;49.47;101170.73;1732855;82;21044;-78
2021/06/08 09:25:40;;;;;;;4.92;2.33;;;;;;;24.96;50.96;101166.91;1732356;81;20910;-75
2021/06/08 09:28:32;;;;;;;2.42;2.20;;;;;;;24.97;49.69;101167.25;1762672;81;21090;-73
2021/06/08 09:31:04;;;;;;;8.83;2.72;;;;;;;25.03;51.12;101166.52;1750633;81;21042;-76
2021/06/08 09:33:43;;;;;;;3.83;2.50;;;;;;;25.14;50.60;101167.38;1762969;81;39806;-79
2021/06/08 09:36:23;;;;;;;7.45;2.45;;;;;;;25.19;50.03;101160.19;1763191;81;20982;-79
2021/06/08 09:39:00;;;;;;;8.03;2.55;;;;;;;25.13;49.60;101167.56;1734147;81;21541;-72
2021/06/08 09:41:44;;;;;;;5.08;2.30;;;;;;;25.04;50.30;101162.86;1763277;81;20991;-76
2021/06/08 09:44:19;;;;;;;8.08;2.45;;;;;;;25.06;50.55;101163.49;1728954;83;21138;-76
2021/06/08 09:46:53;;;;;;;6.47;2.30;;;;;;;25.06;51.13;101163.49;1762132;81;21148;-80
2021/06/08 09:49:35;;;;;;;5.03;2.42;;;;;;;25.15;51.25;101164.22;1761903;81;21509;-79
2021/06/08 09:52:05;;;;;;;4.78;2.55;;;;;;;25.25;50.77;101157.62;1762815;81;21456;-80
2021/06/08 09:54:40;;;;;;;5.17;2.70;;;;;;;25.32;49.32;101150.24;1761980;81;21086;-82
2021/06/08 09:57:45;;;;;;;3.67;2.58;;;;;;;25.37;48.28;101150.00;1761558;81;21125;-72
2021/06/08 10:01:07;;;;;;;;;;;;;;;;;;;;;
2021/06/08 10:03:43;;;;;;;3.90;2.25;;;;;;;26.41;46.04;101137.55;1756189;81;20995;-78
2021/06/08 10:06:25;;;;;;;4.33;2.10;;;;;;;26.55;45.63;101137.95;1761451;81;21097;-77
2021/06/08 10:09:03;;;;;;;3.83;2.20;;;;;;;26.57;45.35;101132.45;1762745;81;21002;-77
2021/06/08 10:11:35;;;;;;;2.83;2.30;;;;;;;26.61;45.72;101127.85;1762564;81;21124;-73
2021/06/08 10:14:21;;;;;;;8.18;2.30;;;;;;;26.58;45.88;101128.24;1762636;81;21109;-78
2021/06/08 10:17:00;;;;;;;6.60;2.30;;;;;;;26.56;45.02;101130.28;1761979;81;21001;-76
2021/06/08 10:19:27;;;;;;;4.45;2.15;;;;;;;26.41;42.96;101128.73;1762020;81;21001;-74
2021/06/08 10:21:54;;;;;;;3.92;2.22;;;;;;;26.33;44.87;101122.20;1761874;81;21061;-74
2021/06/08 10:24:24;;;;;;;2.90;2.35;;;;;;;26.42;44.68;101122.41;1761617;81;21034;-81
2021/06/08 10:26:56;;;;;;;4.17;1.98;;;;;;;26.52;43.20;101113.55;1762102;81;21101;-76
2021/06/08 10:29:26;;;;;;;10.00;2.37;;;;;;;26.52;42.79;101109.56;1761656;81;21572;-73
2021/06/08 10:31:55;;;;;;;5.50;2.50;;;;;;;26.53;43.11;101109.38;1754176;81;21154;-75
2021/06/08 10:34:22;;;;;;;5.22;2.33;;;;;;;26.54;41.58;101109.70;1748910;81;20931;-78
2021/06/08 10:36:49;;;;;;;3.98;2.35;;;;;;;26.50;41.10;101097.79;1762620;81;20914;-82
2021/06/08 10:39:19;;;;;;;4.80;2.50;;;;;;;26.54;43.90;101099.05;1758664;81;21117;-79
2021/06/08 10:41:46;;;;;;;4.40;2.47;;;;;;;26.62;41.55;101093.56;1732499;82;21582;-79
2021/06/08 10:44:22;;;;;;;5.47;2.27;;;;;;;26.57;41.39;101093.34;1735420;82;21541;-81
2021/06/08 10:46:56;;;;;;;5.78;2.37;;;;;;;26.67;42.07;101087.67;1735190;82;21073;-76
2021/06/08 10:49:42;;;;;;;6.85;2.20;;;;;;;26.70;40.79;101086.77;1735325;82;21049;-76
2021/06/08 10:52:14;;;;;;;6.35;2.20;;;;;;;26.62;41.80;101085.58;1734986;82;21939;-78
2021/06/08 10:54:50;;;;;;;4.45;2.15;;;;;;;26.64;41.21;101083.56;1734869;82;21028;-74
2021/06/08 10:57:18;;;;;;;2.90;2.20;;;;;;;26.41;42.20;101086.98;1735325;82;22401;-73
2021/06/08 10:59:51;;;;;;;5.78;2.40;;;;;;;26.28;43.94;101082.39;1736891;82;20990;-75
2021/06/08 11:02:45;;;;;;;6.50;2.40;;;;;;;26.34;42.62;101086.11;1736821;82;20998;-75
2021/06/08 11:05:14;;;;;;;2.77;2.40;;;;;;;26.47;41.98;101080.88;1673666;85;21568;-77
2021/06/08 11:07:51;;;;;;;3.15;2.20;;;;;;;26.67;43.83;101067.70;1721767;82;20997;-74
2021/06/08 11:10:33;;;;;;;4.15;2.52;;;;;;;26.82;42.66;101064.43;1735704;82;21153;-74
2021/06/08 11:13:17;;;;;;;5.30;2.20;;;;;;;26.87;41.75;101071.84;1736407;82;20986;-72
2021/06/08 11:15:47;;;;;;;5.22;2.50;;;;;;;26.74;42.28;101057.38;1738848;79;20974;-71
2021/06/08 11:18:27;;;;;;;5.70;3.02;;;;;;;26.82;43.76;101061.77;1766779;81;21130;-73
2021/06/08 11:21:07;;;;;;;8.83;2.52;;;;;;;26.94;43.12;101049.52;1740205;81;21033;-78
2021/06/08 11:23:44;;;;;;;4.25;2.60;;;;;;;27.10;42.09;101048.36;1736081;82;21138;-74
2021/06/08 11:26:13;;;;;;;7.55;2.83;;;;;;;27.33;42.42;101050.19;1735984;82;21081;-75
2021/06/08 11:28:48;;;;;;;3.77;2.45;;;;;;;27.43;40.49;101043.14;1736252;82;21030;-77
2021/06/08 11:31:22;;;;;;;6.30;2.42;;;;;;;27.45;41.73;101048.60;1736059;82;21269;-84
2021/06/08 11:33:51;;;;;;;3.90;2.20;;;;;;;27.37;40.77;101045.28;1736218;82;20926;-78
2021/06/08 11:36:30;;;;;;;5.22;2.58;;;;;;;27.24;41.92;101041.56;1735626;82;20937;-72
2021/06/08 11:39:25;;;;;;;4.58;2.10;;;;;;;27.39;42.23;101041.89;1736364;82;21568;-79
2021/06/08 11:42:03;;;;;;;4.45;2.30;;;;;;;27.68;41.54;101036.23;1724066;82;21606;-80
2021/06/08 11:44:31;;;;;;;3.35;2.10;;;;;;;27.96;41.32;101036.03;1722369;83;21118;-81